createdAt,value
2024-05-09T00:01:32.348Z,59.71
2024-05-09T00:02:32.378Z,59.67
2024-05-09T00:03:32.373Z,59.65
2024-05-09T00:04:32.334Z,59.68
2024-05-09T00:05:32.409Z,59.67
2024-05-09T00:06:32.306Z,59.76
2024-05-09T00:07:32.321Z,59.63
2024-05-09T00:08:32.558Z,59.82
2024-05-09T00:09:32.327Z,59.76
2024-05-09T00:10:37.224Z,59.88
2024-05-09T00:11:33.406Z,59.86
2024-05-09T00:12:32.298Z,59.81
2024-05-09T00:13:32.314Z,59.98
2024-05-09T00:14:32.391Z,59.99
2024-05-09T00:15:32.333Z,60.05
2024-05-09T00:16:32.321Z,59.98
2024-05-09T00:17:32.475Z,60.10
2024-05-09T00:18:32.442Z,60.03
2024-05-09T00:19:32.615Z,60.04
2024-05-09T00:20:37.982Z,60.02
2024-05-09T00:21:33.617Z,59.90
2024-05-09T00:22:32.613Z,59.82
2024-05-09T00:23:32.868Z,59.79
2024-05-09T00:24:32.648Z,59.80
2024-05-09T00:25:32.645Z,59.79
2024-05-09T00:26:32.719Z,59.78
2024-05-09T00:27:32.661Z,59.76
2024-05-09T00:28:32.669Z,59.89
2024-05-09T00:29:32.800Z,59.88
2024-05-09T00:30:35.788Z,59.95
2024-05-09T00:31:32.760Z,59.95
2024-05-09T00:32:32.903Z,60.04
2024-05-09T00:33:32.880Z,60.11
2024-05-09T00:34:32.817Z,60.16
2024-05-09T00:35:32.993Z,60.11
2024-05-09T00:36:32.821Z,60.05
2024-05-09T00:37:32.830Z,60.25
2024-05-09T00:38:33.028Z,60.26
2024-05-09T00:39:32.864Z,60.35
2024-05-09T00:40:38.929Z,60.57
2024-05-09T00:41:34.018Z,60.56
2024-05-09T00:42:32.894Z,60.55
2024-05-09T00:43:32.975Z,60.48
2024-05-09T00:44:32.986Z,60.53
2024-05-09T00:45:32.897Z,60.66
2024-05-09T00:46:32.932Z,60.47
2024-05-09T00:47:33.206Z,60.50
2024-05-09T00:48:33.282Z,60.63
2024-05-09T00:49:33.152Z,60.48
2024-05-09T00:50:36.512Z,60.54
2024-05-09T00:51:32.952Z,60.48
2024-05-09T00:52:32.982Z,60.29
2024-05-09T00:53:33.192Z,60.42
2024-05-09T00:54:32.973Z,60.34
2024-05-09T00:55:32.980Z,60.24
2024-05-09T00:56:33.073Z,60.18
2024-05-09T00:57:33.024Z,60.29
2024-05-09T00:58:33.021Z,60.33
2024-05-09T00:59:33.104Z,60.29
2024-05-09T01:00:38.717Z,60.24
2024-05-09T01:01:34.190Z,60.18
2024-05-09T01:02:33.155Z,60.12
2024-05-09T01:03:33.327Z,60.13
2024-05-09T01:04:33.091Z,60.27
2024-05-09T01:05:33.218Z,60.33
2024-05-09T01:06:33.064Z,60.25
2024-05-09T01:07:33.148Z,60.19
2024-05-09T01:08:33.254Z,60.19
2024-05-09T01:09:33.151Z,60.22
2024-05-09T01:10:35.127Z,60.18
2024-05-09T01:11:33.265Z,60.16
2024-05-09T01:12:33.307Z,60.25
2024-05-09T01:13:33.313Z,60.39
2024-05-09T01:14:33.357Z,60.34
2024-05-09T01:15:33.342Z,60.36
2024-05-09T01:16:33.355Z,60.36
2024-05-09T01:17:33.505Z,60.27
2024-05-09T01:18:33.476Z,60.24
2024-05-09T01:19:33.468Z,60.19
2024-05-09T01:20:41.019Z,60.19
2024-05-09T01:21:34.424Z,60.20
2024-05-09T01:22:33.427Z,60.28
2024-05-09T01:23:33.572Z,60.24
2024-05-09T01:24:33.495Z,60.29
2024-05-09T01:25:33.518Z,60.26
2024-05-09T01:26:33.599Z,60.32
2024-05-09T01:27:33.535Z,60.33
2024-05-09T01:28:33.563Z,60.47
2024-05-09T01:29:33.789Z,60.33
2024-05-09T01:30:36.464Z,60.34
2024-05-09T01:31:34.030Z,60.49
2024-05-09T01:32:34.173Z,60.45
2024-05-09T01:33:34.082Z,60.38
2024-05-09T01:34:34.033Z,60.42
2024-05-09T01:35:34.081Z,60.44
2024-05-09T01:36:34.041Z,60.50
2024-05-09T01:37:34.170Z,60.37
2024-05-09T01:38:34.314Z,60.56
2024-05-09T01:39:34.202Z,60.46
2024-05-09T01:40:38.441Z,60.44
2024-05-09T01:41:35.285Z,60.42
2024-05-09T01:42:34.267Z,60.44
2024-05-09T01:43:34.343Z,60.14
2024-05-09T01:44:34.358Z,60.07
2024-05-09T01:45:34.317Z,60.26
2024-05-09T01:46:34.340Z,60.42
2024-05-09T01:47:34.460Z,60.59
2024-05-09T01:48:34.422Z,60.51
2024-05-09T01:49:34.424Z,60.59
2024-05-09T01:50:39.401Z,60.65
2024-05-09T01:51:35.439Z,60.64
2024-05-09T01:52:34.466Z,60.54
2024-05-09T01:53:34.508Z,60.52
2024-05-09T01:54:34.519Z,60.57
2024-05-09T01:55:34.573Z,60.40
2024-05-09T01:56:34.685Z,60.42
2024-05-09T01:57:34.534Z,60.50
2024-05-09T01:58:34.632Z,60.39
2024-05-09T01:59:34.879Z,60.24
2024-05-09T02:00:40.040Z,60.38
2024-05-09T02:01:55.629Z,60.47
2024-05-09T02:02:36.102Z,60.52
2024-05-09T02:03:35.205Z,60.40
2024-05-09T02:04:35.201Z,60.36
2024-05-09T02:05:35.167Z,60.32
2024-05-09T02:06:35.077Z,60.30
2024-05-09T02:07:35.102Z,60.32
2024-05-09T02:08:35.210Z,60.24
2024-05-09T02:09:35.135Z,60.34
2024-05-09T02:10:35.300Z,60.31
2024-05-09T02:11:35.236Z,60.36
2024-05-09T02:12:35.202Z,60.31
2024-05-09T02:13:35.192Z,60.32
2024-05-09T02:14:35.279Z,60.48
2024-05-09T02:15:35.224Z,60.40
2024-05-09T02:16:35.230Z,60.34
2024-05-09T02:17:35.419Z,60.21
2024-05-09T02:18:35.298Z,60.22
2024-05-09T02:19:35.400Z,60.17
2024-05-09T02:20:36.839Z,60.22
2024-05-09T02:21:35.397Z,60.29
2024-05-09T02:22:35.390Z,60.31
2024-05-09T02:23:35.451Z,60.38
2024-05-09T02:24:35.405Z,60.39
2024-05-09T02:25:35.480Z,60.39
2024-05-09T02:26:35.548Z,60.35
2024-05-09T02:27:35.508Z,60.25
2024-05-09T02:28:35.531Z,60.24
2024-05-09T02:29:35.651Z,60.25
2024-05-09T02:30:40.187Z,60.31
2024-05-09T02:31:36.714Z,60.27
2024-05-09T02:32:35.841Z,60.17
2024-05-09T02:33:36.001Z,60.27
2024-05-09T02:34:35.779Z,60.45
2024-05-09T02:35:35.836Z,60.38
2024-05-09T02:36:35.772Z,60.36
2024-05-09T02:37:35.779Z,60.26
2024-05-09T02:38:35.830Z,60.27
2024-05-09T02:39:35.790Z,60.26
2024-05-09T02:40:38.363Z,60.39
2024-05-09T02:41:35.931Z,60.52
2024-05-09T02:42:35.861Z,60.43
2024-05-09T02:43:35.868Z,60.46
2024-05-09T02:44:35.978Z,60.57
2024-05-09T02:45:35.928Z,60.66
2024-05-09T02:46:35.902Z,60.90
2024-05-09T02:47:36.051Z,60.80
2024-05-09T02:48:36.096Z,60.77
2024-05-09T02:49:36.064Z,60.82
2024-05-09T02:50:39.168Z,60.83
2024-05-09T02:51:36.059Z,60.90
2024-05-09T02:52:36.005Z,61.30
2024-05-09T02:53:36.055Z,61.21
2024-05-09T02:54:36.026Z,61.19
2024-05-09T02:55:36.035Z,61.18
2024-05-09T02:56:36.092Z,61.29
2024-05-09T02:57:36.049Z,61.35
2024-05-09T02:58:36.067Z,61.28
2024-05-09T02:59:36.118Z,61.22
2024-05-09T03:00:39.647Z,61.29
2024-05-09T03:01:37.178Z,61.13
2024-05-09T03:02:36.125Z,61.03
2024-05-09T03:03:36.370Z,60.91
2024-05-09T03:04:36.312Z,60.94
2024-05-09T03:05:36.378Z,60.84
2024-05-09T03:06:36.187Z,60.84
2024-05-09T03:07:36.195Z,60.74
2024-05-09T03:08:36.303Z,60.78
2024-05-09T03:09:36.196Z,60.81
2024-05-09T03:10:38.313Z,60.80
2024-05-09T03:11:36.363Z,60.90
2024-05-09T03:12:37.965Z,60.91
2024-05-09T03:13:36.275Z,61.00
2024-05-09T03:14:36.313Z,60.96
2024-05-09T03:15:36.353Z,60.86
2024-05-09T03:16:36.301Z,60.90
2024-05-09T03:17:36.566Z,60.95
2024-05-09T03:18:36.356Z,61.02
2024-05-09T03:19:36.338Z,61.01
2024-05-09T03:20:37.150Z,61.03
2024-05-09T03:21:36.321Z,61.03
2024-05-09T03:22:36.337Z,60.85
2024-05-09T03:23:36.370Z,60.74
2024-05-09T03:24:36.351Z,60.74
2024-05-09T03:25:36.369Z,60.79
2024-05-09T03:26:36.423Z,60.85
2024-05-09T03:27:36.380Z,60.94
2024-05-09T03:28:36.390Z,60.84
2024-05-09T03:29:36.448Z,60.67
2024-05-09T03:30:41.385Z,60.55
2024-05-09T03:31:37.461Z,60.55
2024-05-09T03:32:36.548Z,60.69
2024-05-09T03:33:36.768Z,60.75
2024-05-09T03:34:36.439Z,60.63
2024-05-09T03:35:36.526Z,60.63
2024-05-09T03:36:36.457Z,60.64
2024-05-09T03:37:36.526Z,60.69
2024-05-09T03:38:36.734Z,60.69
2024-05-09T03:39:36.903Z,60.66
2024-05-09T03:40:37.115Z,60.73
2024-05-09T03:41:37.377Z,60.71
2024-05-09T03:42:37.522Z,60.83
2024-05-09T03:43:37.734Z,60.93
2024-05-09T03:44:37.945Z,60.69
2024-05-09T03:45:38.138Z,60.74
2024-05-09T03:46:38.325Z,60.53
2024-05-09T03:47:38.639Z,60.61
2024-05-09T03:48:38.772Z,60.64
2024-05-09T03:49:38.943Z,60.70
2024-05-09T03:50:39.182Z,60.71
2024-05-09T03:51:39.275Z,60.74
2024-05-09T03:52:39.456Z,60.78
2024-05-09T03:53:39.785Z,60.82
2024-05-09T03:54:39.853Z,60.85
2024-05-09T03:55:40.060Z,60.72
2024-05-09T03:56:40.356Z,60.69
2024-05-09T03:57:40.457Z,60.50
2024-05-09T03:58:40.638Z,60.51
2024-05-09T03:59:40.923Z,60.55
2024-05-09T04:00:41.194Z,60.68
2024-05-09T04:01:41.372Z,60.76
2024-05-09T04:02:41.561Z,60.57
2024-05-09T04:03:41.787Z,60.49
2024-05-09T04:04:41.968Z,60.44
2024-05-09T04:05:43.231Z,60.58
2024-05-09T04:06:42.158Z,60.58
2024-05-09T04:07:42.241Z,60.67
2024-05-09T04:08:42.340Z,60.69
2024-05-09T04:09:42.390Z,60.59
2024-05-09T04:10:42.464Z,60.65
2024-05-09T04:11:42.665Z,60.55
2024-05-09T04:12:42.613Z,60.59
2024-05-09T04:13:42.690Z,60.53
2024-05-09T04:14:42.904Z,60.56
2024-05-09T04:15:43.052Z,60.56
2024-05-09T04:16:43.255Z,60.66
2024-05-09T04:17:43.688Z,61.09
2024-05-09T04:18:43.762Z,61.09
2024-05-09T04:19:43.892Z,61.02
2024-05-09T04:20:44.058Z,61.00
2024-05-09T04:21:44.234Z,61.02
2024-05-09T04:22:44.484Z,61.07
2024-05-09T04:23:44.686Z,60.97
2024-05-09T04:24:44.838Z,60.80
2024-05-09T04:25:45.729Z,60.86
2024-05-09T04:26:45.104Z,60.82
2024-05-09T04:27:45.179Z,60.61
2024-05-09T04:28:45.269Z,60.84
2024-05-09T04:29:45.317Z,61.07
2024-05-09T04:30:45.414Z,60.98
2024-05-09T04:31:45.441Z,60.97
2024-05-09T04:32:45.594Z,61.03
2024-05-09T04:33:53.646Z,61.12
2024-05-09T04:34:53.640Z,61.03
2024-05-09T04:35:53.746Z,60.90
2024-05-09T04:36:53.967Z,60.99
2024-05-09T04:37:54.132Z,61.03
2024-05-09T04:38:54.153Z,60.90
2024-05-09T04:39:54.290Z,60.84
2024-05-09T04:40:54.573Z,60.67
2024-05-09T04:41:54.642Z,60.57
2024-05-09T04:42:54.780Z,60.34
2024-05-09T04:43:54.985Z,60.21
2024-05-09T04:44:58.258Z,59.97
2024-05-09T04:45:55.110Z,59.90
2024-05-09T04:46:55.130Z,59.86
2024-05-09T04:47:55.338Z,59.79
2024-05-09T04:48:55.224Z,59.89
2024-05-09T04:49:55.179Z,59.82
2024-05-09T04:50:55.185Z,59.77
2024-05-09T04:51:55.175Z,59.73
2024-05-09T04:52:55.211Z,59.80
2024-05-09T04:53:55.212Z,59.56
2024-05-09T04:54:56.902Z,59.62
2024-05-09T04:55:55.296Z,59.75
2024-05-09T04:56:56.003Z,59.81
2024-05-09T04:57:55.250Z,59.93
2024-05-09T04:58:55.303Z,59.95
2024-05-09T04:59:55.303Z,59.84
2024-05-09T05:00:55.320Z,59.84
2024-05-09T05:01:55.379Z,59.69
2024-05-09T05:02:55.492Z,59.56
2024-05-09T05:03:56.137Z,59.46
2024-05-09T05:04:55.432Z,59.61
2024-05-09T05:05:55.436Z,59.69
2024-05-09T05:06:56.020Z,59.77
2024-05-09T05:07:55.383Z,59.75
2024-05-09T05:08:55.367Z,59.68
2024-05-09T05:09:55.361Z,59.59
2024-05-09T05:10:55.526Z,59.66
2024-05-09T05:11:55.749Z,59.65
2024-05-09T05:12:55.420Z,59.64
2024-05-09T05:13:55.489Z,59.47
2024-05-09T05:14:55.466Z,59.39
2024-05-09T05:15:55.923Z,59.43
2024-05-09T05:16:55.484Z,59.49
2024-05-09T05:17:55.702Z,59.39
2024-05-09T05:18:55.649Z,59.27
2024-05-09T05:19:55.724Z,59.12
2024-05-09T05:20:55.724Z,59.16
2024-05-09T05:21:55.554Z,59.18
2024-05-09T05:22:55.633Z,59.31
2024-05-09T05:23:55.627Z,59.36
2024-05-09T05:24:55.670Z,59.32
2024-05-09T05:25:55.977Z,59.16
2024-05-09T05:26:55.809Z,58.92
2024-05-09T05:27:55.915Z,58.84
2024-05-09T05:28:56.007Z,58.95
2024-05-09T05:29:56.071Z,59.12
2024-05-09T05:30:56.194Z,59.02
2024-05-09T05:31:56.185Z,58.94
2024-05-09T05:32:56.370Z,58.94
2024-05-09T05:33:56.503Z,58.85
2024-05-09T05:34:56.653Z,58.76
2024-05-09T05:35:56.792Z,58.60
2024-05-09T05:36:56.959Z,58.68
2024-05-09T05:37:57.180Z,58.81
2024-05-09T05:38:57.356Z,58.67
2024-05-09T05:39:57.465Z,58.48
2024-05-09T05:40:57.683Z,58.20
2024-05-09T05:41:57.791Z,58.14
2024-05-09T05:42:57.988Z,58.11
2024-05-09T05:43:58.205Z,58.18
2024-05-09T05:44:58.318Z,58.48
2024-05-09T05:45:58.502Z,58.64
2024-05-09T05:46:58.682Z,58.76
2024-05-09T05:47:59.026Z,58.76
2024-05-09T05:48:59.164Z,58.54
2024-05-09T05:49:59.246Z,58.49
2024-05-09T05:51:01.934Z,58.13
2024-05-09T05:51:59.418Z,57.67
2024-05-09T05:52:59.452Z,57.58
2024-05-09T05:53:59.437Z,57.69
2024-05-09T05:54:59.449Z,57.91
2024-05-09T05:55:59.483Z,58.06
2024-05-09T05:56:59.620Z,58.16
2024-05-09T05:57:59.478Z,58.12
2024-05-09T05:58:59.538Z,57.94
2024-05-09T05:59:59.459Z,57.95
2024-05-09T06:00:59.495Z,57.98
2024-05-09T06:01:59.505Z,58.11
2024-05-09T06:02:59.597Z,58.11
2024-05-09T06:03:59.648Z,58.20
2024-05-09T06:04:59.551Z,58.11
2024-05-09T06:05:59.659Z,57.87
2024-05-09T06:06:59.500Z,57.88
2024-05-09T06:07:59.583Z,58.07
2024-05-09T06:08:59.499Z,58.12
2024-05-09T06:09:59.509Z,58.00
2024-05-09T06:10:59.629Z,58.08
2024-05-09T06:11:59.625Z,58.18
2024-05-09T06:12:59.632Z,58.19
2024-05-09T06:13:59.708Z,58.10
2024-05-09T06:14:59.714Z,57.97
2024-05-09T06:15:59.761Z,57.61
2024-05-09T06:16:59.820Z,57.51
2024-05-09T06:18:00.097Z,57.64
2024-05-09T06:18:59.983Z,57.55
2024-05-09T06:19:59.978Z,57.39
2024-05-09T06:21:00.091Z,57.47
2024-05-09T06:22:00.164Z,57.60
2024-05-09T06:23:00.378Z,57.55
2024-05-09T06:24:02.512Z,57.52
2024-05-09T06:25:00.502Z,57.62
2024-05-09T06:26:00.530Z,57.88
2024-05-09T06:27:00.475Z,57.57
2024-05-09T06:28:00.624Z,57.53
2024-05-09T06:29:00.546Z,57.80
2024-05-09T06:30:00.513Z,57.78
2024-05-09T06:31:00.514Z,57.86
2024-05-09T06:32:00.693Z,57.89
2024-05-09T06:33:00.720Z,57.14
2024-05-09T06:34:00.653Z,57.10
2024-05-09T06:35:00.547Z,57.13
2024-05-09T06:36:00.488Z,57.12
2024-05-09T06:37:00.499Z,57.13
2024-05-09T06:38:00.534Z,57.09
2024-05-09T06:39:00.482Z,56.81
2024-05-09T06:40:00.468Z,56.69
2024-05-09T06:41:00.525Z,56.67
2024-05-09T06:42:00.466Z,56.67
2024-05-09T06:43:00.586Z,56.71
2024-05-09T06:44:00.642Z,56.68
2024-05-09T06:45:00.598Z,56.87
2024-05-09T06:46:00.546Z,57.16
2024-05-09T06:47:00.654Z,57.08
2024-05-09T06:48:00.790Z,56.79
2024-05-09T06:49:00.605Z,56.72
2024-05-09T06:50:00.624Z,56.53
2024-05-09T06:51:00.578Z,56.23
2024-05-09T06:52:00.487Z,56.23
2024-05-09T06:53:00.638Z,56.19
2024-05-09T06:54:00.496Z,56.34
2024-05-09T06:55:00.488Z,56.14
2024-05-09T06:56:00.509Z,56.01
2024-05-09T06:57:00.489Z,55.56
2024-05-09T06:58:00.484Z,55.31
2024-05-09T06:59:00.628Z,55.24
2024-05-09T07:00:00.450Z,55.26
2024-05-09T07:01:00.462Z,55.14
2024-05-09T07:02:00.462Z,55.18
2024-05-09T07:03:03.502Z,55.14
2024-05-09T07:04:00.434Z,55.12
2024-05-09T07:05:00.519Z,54.74
2024-05-09T07:06:00.422Z,54.44
2024-05-09T07:07:00.388Z,54.64
2024-05-09T07:08:00.436Z,54.15
2024-05-09T07:09:00.359Z,54.17
2024-05-09T07:10:00.353Z,54.05
2024-05-09T07:11:00.487Z,53.90
2024-05-09T07:12:00.396Z,54.11
2024-05-09T07:13:00.346Z,54.06
2024-05-09T07:14:00.351Z,54.72
2024-05-09T07:15:00.328Z,54.68
2024-05-09T07:16:00.341Z,54.21
2024-05-09T07:17:00.353Z,54.20
2024-05-09T07:18:00.443Z,53.62
2024-05-09T07:19:00.498Z,53.79
2024-05-09T07:20:00.471Z,53.78
2024-05-09T07:21:00.273Z,53.72
2024-05-09T07:22:00.254Z,53.76
2024-05-09T07:23:00.289Z,53.77
2024-05-09T07:24:00.246Z,54.00
2024-05-09T07:25:00.202Z,53.61
2024-05-09T07:26:00.237Z,53.51
2024-05-09T07:27:00.154Z,53.05
2024-05-09T07:28:00.160Z,53.05
2024-05-09T07:29:00.134Z,52.70
2024-05-09T07:30:00.143Z,51.78
2024-05-09T07:31:00.090Z,51.83
2024-05-09T07:32:00.195Z,52.28
2024-05-09T07:33:00.605Z,52.18
2024-05-09T07:34:00.524Z,51.82
2024-05-09T07:35:00.260Z,51.73
2024-05-09T07:36:00.265Z,52.14
2024-05-09T07:37:00.308Z,52.26
2024-05-09T07:38:00.408Z,52.56
2024-05-09T07:39:00.386Z,52.47
2024-05-09T07:40:00.464Z,52.49
2024-05-09T07:41:00.520Z,52.14
2024-05-09T07:42:00.399Z,51.67
2024-05-09T07:43:00.418Z,51.76
2024-05-09T07:44:00.471Z,52.18
2024-05-09T07:45:20.540Z,51.76
2024-05-09T07:46:48.260Z,51.69
2024-05-09T07:51:48.223Z,50.49
2024-05-09T07:53:07.623Z,50.77
2024-05-09T07:53:24.937Z,50.68
2024-05-09T07:53:35.948Z,50.58
2024-05-09T07:54:01.897Z,50.43
2024-05-09T07:55:00.599Z,50.80
2024-05-09T07:56:00.369Z,51.01
2024-05-09T07:57:00.317Z,50.75
2024-05-09T07:58:00.182Z,50.29
2024-05-09T07:59:00.129Z,50.12
2024-05-09T08:00:00.185Z,49.91
2024-05-09T08:01:00.279Z,49.59
2024-05-09T08:02:00.573Z,49.06
2024-05-09T08:03:01.439Z,48.68
2024-05-09T08:04:00.388Z,48.88
2024-05-09T08:05:00.361Z,49.09
2024-05-09T08:06:00.156Z,48.80
2024-05-09T08:07:00.120Z,49.04
2024-05-09T08:08:00.103Z,49.70
2024-05-09T08:09:03.101Z,49.53
2024-05-09T08:10:01.039Z,49.20
2024-05-09T08:10:59.959Z,48.66
2024-05-09T08:11:59.952Z,48.87
2024-05-09T08:12:59.996Z,48.95
2024-05-09T08:13:59.926Z,48.90
2024-05-09T08:14:59.912Z,48.66
2024-05-09T08:15:59.964Z,49.27
2024-05-09T08:16:59.910Z,49.55
2024-05-09T08:18:00.075Z,49.30
2024-05-09T08:19:00.001Z,48.81
2024-05-09T08:20:00.356Z,48.97
2024-05-09T08:20:59.759Z,48.13
2024-05-09T08:21:59.724Z,47.55
2024-05-09T08:22:59.700Z,47.64
2024-05-09T08:24:00.574Z,47.92
2024-05-09T08:24:59.681Z,48.43
2024-05-09T08:25:59.625Z,48.31
2024-05-09T08:26:59.613Z,48.22
2024-05-09T08:27:59.636Z,47.96
2024-05-09T08:28:59.581Z,48.17
2024-05-09T08:29:59.586Z,49.12
2024-05-09T08:31:01.628Z,48.57
2024-05-09T08:31:59.647Z,48.17
2024-05-09T08:32:59.638Z,48.70
2024-05-09T08:33:59.715Z,49.15
2024-05-09T08:34:59.558Z,49.37
2024-05-09T08:35:59.488Z,49.27
2024-05-09T08:37:03.927Z,49.31
2024-05-09T08:38:00.471Z,49.04
2024-05-09T08:38:59.385Z,47.95
2024-05-09T08:39:59.363Z,48.23
2024-05-09T08:40:59.344Z,47.93
2024-05-09T08:41:59.306Z,47.95
2024-05-09T08:42:59.310Z,47.91
2024-05-09T08:43:59.263Z,48.05
2024-05-09T08:44:59.219Z,48.25
2024-05-09T08:45:59.224Z,48.29
2024-05-09T08:46:59.115Z,48.14
2024-05-09T08:47:59.234Z,48.02
2024-05-09T08:48:59.145Z,47.75
2024-05-09T08:49:59.036Z,47.29
2024-05-09T08:50:58.965Z,47.34
2024-05-09T08:51:58.921Z,47.24
2024-05-09T08:52:58.850Z,47.80
2024-05-09T08:53:58.800Z,48.03
2024-05-09T08:54:58.789Z,47.52
2024-05-09T08:55:58.723Z,47.48
2024-05-09T08:56:58.697Z,47.33
2024-05-09T08:57:58.705Z,47.31
2024-05-09T08:58:58.651Z,47.79
2024-05-09T08:59:58.644Z,47.47
2024-05-09T09:00:58.679Z,46.08
2024-05-09T09:01:58.657Z,46.01
2024-05-09T09:02:58.588Z,46.12
2024-05-09T09:03:58.659Z,46.71
2024-05-09T09:04:58.525Z,46.86
2024-05-09T09:05:58.458Z,46.23
2024-05-09T09:06:59.760Z,46.50
2024-05-09T09:07:58.435Z,46.44
2024-05-09T09:08:58.445Z,45.52
2024-05-09T09:09:58.482Z,44.76
2024-05-09T09:10:58.476Z,44.54
2024-05-09T09:11:58.486Z,45.15
2024-05-09T09:12:58.506Z,44.77
2024-05-09T09:13:58.507Z,44.61
2024-05-09T09:14:58.557Z,44.34
2024-05-09T09:15:59.259Z,44.67
2024-05-09T09:16:58.547Z,45.30
2024-05-09T09:17:58.663Z,45.21
2024-05-09T09:18:58.557Z,45.10
2024-05-09T09:19:58.524Z,44.90
2024-05-09T09:20:58.485Z,45.38
2024-05-09T09:21:58.499Z,45.93
2024-05-09T09:22:58.436Z,45.95
2024-05-09T09:23:58.472Z,45.69
2024-05-09T09:24:58.475Z,45.36
2024-05-09T09:25:58.488Z,45.28
2024-05-09T09:26:58.463Z,44.49
2024-05-09T09:27:58.724Z,45.21
2024-05-09T09:28:58.479Z,44.62
2024-05-09T09:29:58.504Z,44.45
2024-05-09T09:30:58.517Z,44.67
2024-05-09T09:31:58.489Z,43.72
2024-05-09T09:32:58.589Z,43.79
2024-05-09T09:33:58.585Z,43.88
2024-05-09T09:34:58.497Z,44.20
2024-05-09T09:35:58.473Z,43.36
2024-05-09T09:36:58.517Z,42.90
2024-05-09T09:37:58.446Z,43.21
2024-05-09T09:38:58.458Z,43.23
2024-05-09T09:39:58.424Z,43.47
2024-05-09T09:40:58.465Z,43.61
2024-05-09T09:41:58.329Z,44.25
2024-05-09T09:42:58.386Z,44.57
2024-05-09T09:43:58.272Z,44.29
2024-05-09T09:45:04.661Z,44.29
2024-05-09T09:45:59.194Z,43.85
2024-05-09T09:46:58.211Z,43.77
2024-05-09T09:47:58.164Z,43.73
2024-05-09T09:48:58.144Z,44.42
2024-05-09T09:49:57.995Z,44.70
2024-05-09T09:50:57.934Z,43.99
2024-05-09T09:51:57.878Z,45.00
2024-05-09T09:52:57.819Z,44.69
2024-05-09T09:53:57.808Z,43.59
2024-05-09T09:54:57.846Z,43.01
2024-05-09T09:55:57.799Z,43.71
2024-05-09T09:56:57.813Z,42.75
2024-05-09T09:57:57.826Z,44.07
2024-05-09T09:58:57.745Z,44.03
2024-05-09T09:59:57.736Z,42.28
2024-05-09T10:00:57.848Z,42.60
2024-05-09T10:01:57.803Z,42.78
2024-05-09T10:02:57.727Z,42.84
2024-05-09T10:03:57.701Z,42.73
2024-05-09T10:04:57.688Z,41.60
2024-05-09T10:05:57.706Z,42.26
2024-05-09T10:06:57.690Z,42.74
2024-05-09T10:07:57.628Z,41.57
2024-05-09T10:08:57.612Z,41.84
2024-05-09T10:09:57.642Z,41.71
2024-05-09T10:10:57.753Z,41.49
2024-05-09T10:12:57.642Z,40.84
2024-05-09T10:13:57.554Z,40.85
2024-05-09T10:14:57.456Z,40.91
2024-05-09T10:15:57.440Z,41.56
2024-05-09T10:16:57.332Z,41.19
2024-05-09T10:17:57.361Z,41.00
2024-05-09T10:18:57.402Z,41.27
2024-05-09T10:19:57.362Z,39.54
2024-05-09T10:20:57.279Z,39.97
2024-05-09T10:21:57.323Z,40.19
2024-05-09T10:22:57.230Z,39.75
2024-05-09T10:23:57.240Z,39.40
2024-05-09T10:24:57.326Z,39.46
2024-05-09T10:25:57.233Z,40.00
2024-05-09T10:26:57.211Z,39.91
2024-05-09T10:27:57.217Z,40.20
2024-05-09T10:28:57.182Z,40.45
2024-05-09T10:29:57.232Z,40.71
2024-05-09T10:30:57.245Z,39.72
2024-05-09T10:31:57.148Z,39.28
2024-05-09T10:32:57.166Z,39.76
2024-05-09T10:33:57.204Z,40.76
2024-05-09T10:34:57.152Z,40.92
2024-05-09T10:35:57.059Z,41.05
2024-05-09T10:36:57.117Z,39.33
2024-05-09T10:37:57.025Z,39.36
2024-05-09T10:38:57.022Z,39.43
2024-05-09T10:39:57.054Z,39.81
2024-05-09T10:40:57.022Z,39.35
2024-05-09T10:41:57.012Z,38.50
2024-05-09T10:42:57.202Z,38.01
2024-05-09T10:43:56.975Z,38.93
2024-05-09T10:44:56.970Z,38.47
2024-05-09T10:45:56.974Z,38.01
2024-05-09T10:46:57.949Z,37.67
2024-05-09T10:47:56.951Z,37.81
2024-05-09T10:48:56.858Z,37.91
2024-05-09T10:49:56.711Z,37.94
2024-05-09T10:50:56.602Z,37.43
2024-05-09T10:51:56.612Z,37.58
2024-05-09T10:52:56.448Z,37.93
2024-05-09T10:53:56.390Z,36.95
2024-05-09T10:54:56.311Z,37.32
2024-05-09T10:55:56.195Z,39.24
2024-05-09T10:56:56.149Z,39.36
2024-05-09T10:57:56.106Z,38.68
2024-05-09T10:58:55.992Z,38.66
2024-05-09T10:59:55.866Z,38.24
2024-05-09T11:00:55.953Z,37.49
2024-05-09T11:01:55.823Z,37.72
2024-05-09T11:02:55.701Z,37.16
2024-05-09T11:03:55.757Z,37.31
2024-05-09T11:04:55.766Z,38.29
2024-05-09T11:05:55.657Z,37.12
2024-05-09T11:06:55.565Z,37.21
2024-05-09T11:07:55.460Z,37.06
2024-05-09T11:08:55.456Z,37.13
2024-05-09T11:09:55.485Z,36.88
2024-05-09T11:10:55.524Z,37.22
2024-05-09T11:11:55.483Z,37.42
2024-05-09T11:12:55.486Z,37.29
2024-05-09T11:13:55.439Z,37.78
2024-05-09T11:14:55.398Z,38.16
2024-05-09T11:15:55.461Z,38.08
2024-05-09T11:16:55.534Z,37.88
2024-05-09T11:17:55.779Z,37.99
2024-05-09T11:18:56.296Z,38.00
2024-05-09T11:19:55.804Z,38.67
2024-05-09T11:20:55.740Z,38.71
2024-05-09T11:21:55.732Z,38.12
2024-05-09T11:22:55.628Z,38.12
2024-05-09T11:23:55.637Z,38.19
2024-05-09T11:24:55.825Z,36.91
2024-05-09T11:25:55.833Z,37.17
2024-05-09T11:26:55.969Z,37.15
2024-05-09T11:27:56.123Z,37.03
2024-05-09T11:28:56.219Z,37.16
2024-05-09T11:29:56.332Z,38.24
2024-05-09T11:30:56.477Z,37.63
2024-05-09T11:31:56.624Z,38.09
2024-05-09T11:32:56.975Z,37.20
2024-05-09T11:33:57.182Z,37.50
2024-05-09T11:34:57.125Z,37.72
2024-05-09T11:35:57.284Z,38.76
2024-05-09T11:36:57.432Z,38.99
2024-05-09T11:37:57.530Z,37.91
2024-05-09T11:38:57.691Z,37.92
2024-05-09T11:39:57.850Z,37.77
2024-05-09T11:40:57.998Z,36.52
2024-05-09T11:41:58.163Z,35.76
2024-05-09T11:42:58.338Z,35.64
2024-05-09T11:43:58.460Z,35.86
2024-05-09T11:44:58.600Z,35.78
2024-05-09T11:45:58.822Z,36.00
2024-05-09T11:46:58.874Z,36.13
2024-05-09T11:47:59.120Z,38.21
2024-05-09T11:48:59.326Z,37.89
2024-05-09T11:49:59.510Z,38.17
2024-05-09T11:50:59.445Z,37.80
2024-05-09T11:51:59.675Z,37.60
2024-05-09T11:52:59.649Z,37.62
2024-05-09T11:53:59.789Z,36.05
2024-05-09T11:54:59.981Z,36.36
2024-05-09T11:56:00.009Z,37.08
2024-05-09T11:57:00.230Z,36.51
2024-05-09T11:58:00.426Z,36.56
2024-05-09T11:59:00.495Z,37.04
2024-05-09T12:00:00.642Z,37.17
2024-05-09T12:01:00.863Z,35.68
2024-05-09T12:02:00.991Z,35.26
2024-05-09T12:03:00.981Z,35.20
2024-05-09T12:04:01.409Z,36.00
2024-05-09T12:05:01.163Z,36.35
2024-05-09T12:06:01.179Z,36.41
2024-05-09T12:07:00.981Z,37.42
2024-05-09T12:08:00.857Z,36.78
2024-05-09T12:09:00.806Z,36.33
2024-05-09T12:10:00.806Z,35.27
2024-05-09T12:11:00.971Z,34.70
2024-05-09T12:12:00.617Z,34.75
2024-05-09T12:13:00.611Z,34.84
2024-05-09T12:14:00.504Z,34.64
2024-05-09T12:15:00.498Z,34.61
2024-05-09T12:16:00.535Z,35.31
2024-05-09T12:17:00.467Z,34.81
2024-05-09T12:18:03.472Z,35.67
2024-05-09T12:19:00.346Z,36.21
2024-05-09T12:20:00.242Z,36.30
2024-05-09T12:21:00.128Z,35.71
2024-05-09T12:22:00.187Z,35.63
2024-05-09T12:23:00.047Z,35.62
2024-05-09T12:23:59.964Z,35.46
2024-05-09T12:24:59.908Z,36.06
2024-05-09T12:25:59.833Z,35.63
2024-05-09T12:27:00.570Z,35.82
2024-05-09T12:27:59.856Z,35.79
2024-05-09T12:28:59.548Z,35.93
2024-05-09T12:29:59.441Z,34.82
2024-05-09T12:30:59.413Z,34.79
2024-05-09T12:31:59.331Z,35.37
2024-05-09T12:32:59.208Z,35.42
2024-05-09T12:33:59.122Z,35.61
2024-05-09T12:34:58.936Z,35.07
2024-05-09T12:35:58.860Z,33.70
2024-05-09T12:36:58.797Z,33.11
2024-05-09T12:37:58.650Z,33.15
2024-05-09T12:38:58.542Z,33.05
2024-05-09T12:39:58.486Z,32.78
2024-05-09T12:40:58.361Z,32.99
2024-05-09T12:41:58.252Z,34.13
2024-05-09T12:42:58.179Z,33.91
2024-05-09T12:43:58.033Z,32.82
2024-05-09T12:44:57.927Z,32.14
2024-05-09T12:45:57.881Z,31.73
2024-05-09T12:46:57.730Z,32.61
2024-05-09T12:47:57.738Z,32.85
2024-05-09T12:48:57.629Z,33.17
2024-05-09T12:49:57.398Z,32.96
2024-05-09T12:50:57.406Z,32.79
2024-05-09T12:51:57.224Z,32.82
2024-05-09T12:52:57.019Z,33.48
2024-05-09T12:53:56.913Z,33.54
2024-05-09T12:54:56.854Z,33.54
2024-05-09T12:56:01.604Z,33.68
2024-05-09T12:56:57.685Z,33.35
2024-05-09T12:57:56.617Z,33.99